sensor_id;sensor_type;location;lat;lon;timestamp;P1;durP1;ratioP1;P2;durP2;ratioP2
18188;SDS011;9219;50.396;8.546;2023-08-01T00:00:25;1.13;;;1.03;;
18188;SDS011;9219;50.396;8.546;2023-08-01T00:02:56;1.87;;;1.00;;
18188;SDS011;9219;50.396;8.546;2023-08-01T00:06:35;0.60;;;0.60;;
18188;SDS011;9219;50.396;8.546;2023-08-01T00:09:03;0.80;;;0.80;;
18188;SDS011;9219;50.396;8.546;2023-08-01T00:11:30;1.40;;;1.10;;
18188;SDS011;9219;50.396;8.546;2023-08-01T00:13:57;0.90;;;0.60;;
18188;SDS011;9219;50.396;8.546;2023-08-01T00:16:24;0.77;;;0.77;;
18188;SDS011;9219;50.396;8.546;2023-08-01T00:18:52;2.07;;;0.93;;
18188;SDS011;9219;50.396;8.546;2023-08-01T00:21:20;1.33;;;1.03;;
18188;SDS011;9219;50.396;8.546;2023-08-01T00:28:55;35.40;;;2.23;;
18188;SDS011;9219;50.396;8.546;2023-08-01T00:31:22;185.77;;;6.37;;
18188;SDS011;9219;50.396;8.546;2023-08-01T00:33:53;101.00;;;3.33;;
18188;SDS011;9219;50.396;8.546;2023-08-01T00:36:20;66.43;;;2.87;;
18188;SDS011;9219;50.396;8.546;2023-08-01T00:38:48;81.30;;;3.37;;
18188;SDS011;9219;50.396;8.546;2023-08-01T00:41:15;138.63;;;5.40;;
18188;SDS011;9219;50.396;8.546;2023-08-01T00:43:42;16.57;;;1.23;;
18188;SDS011;9219;50.396;8.546;2023-08-01T00:51:07;33.37;;;2.10;;
18188;SDS011;9219;50.396;8.546;2023-08-01T00:53:35;5.43;;;0.73;;
18188;SDS011;9219;50.396;8.546;2023-08-01T00:56:03;1.13;;;0.60;;
18188;SDS011;9219;50.396;8.546;2023-08-01T00:58:30;1.03;;;0.53;;
18188;SDS011;9219;50.396;8.546;2023-08-01T01:00:58;6.03;;;0.90;;
18188;SDS011;9219;50.396;8.546;2023-08-01T01:03:26;0.93;;;0.80;;
18188;SDS011;9219;50.396;8.546;2023-08-01T01:05:55;0.60;;;0.60;;
18188;SDS011;9219;50.396;8.546;2023-08-01T01:13:30;2.73;;;0.80;;
18188;SDS011;9219;50.396;8.546;2023-08-01T01:15:57;0.87;;;0.63;;
18188;SDS011;9219;50.396;8.546;2023-08-01T01:18:24;1.43;;;0.90;;
18188;SDS011;9219;50.396;8.546;2023-08-01T01:20:53;2.57;;;0.60;;
18188;SDS011;9219;50.396;8.546;2023-08-01T01:23:20;1.77;;;0.60;;
18188;SDS011;9219;50.396;8.546;2023-08-01T01:25:48;0.70;;;0.57;;
18188;SDS011;9219;50.396;8.546;2023-08-01T01:28:17;0.60;;;0.60;;
18188;SDS011;9219;50.396;8.546;2023-08-01T01:35:49;0.40;;;0.40;;
18188;SDS011;9219;50.396;8.546;2023-08-01T01:38:16;0.50;;;0.50;;
18188;SDS011;9219;50.396;8.546;2023-08-01T01:40:44;1.07;;;0.50;;
18188;SDS011;9219;50.396;8.546;2023-08-01T01:43:11;0.77;;;0.67;;
18188;SDS011;9219;50.396;8.546;2023-08-01T01:45:38;0.50;;;0.50;;
18188;SDS011;9219;50.396;8.546;2023-08-01T01:48:05;6.83;;;0.70;;
18188;SDS011;9219;50.396;8.546;2023-08-01T01:50:35;0.67;;;0.40;;
18188;SDS011;9219;50.396;8.546;2023-08-01T01:58:06;0.60;;;0.50;;
18188;SDS011;9219;50.396;8.546;2023-08-01T02:00:33;0.90;;;0.60;;
18188;SDS011;9219;50.396;8.546;2023-08-01T02:03:00;0.70;;;0.70;;
18188;SDS011;9219;50.396;8.546;2023-08-01T02:05:28;0.87;;;0.87;;
18188;SDS011;9219;50.396;8.546;2023-08-01T02:07:56;0.60;;;0.60;;
18188;SDS011;9219;50.396;8.546;2023-08-01T02:10:23;0.70;;;0.70;;
18188;SDS011;9219;50.396;8.546;2023-08-01T02:12:51;1.57;;;1.00;;
18188;SDS011;9219;50.396;8.546;2023-08-01T02:20:26;3.30;;;1.10;;
18188;SDS011;9219;50.396;8.546;2023-08-01T02:22:54;1.13;;;1.00;;
18188;SDS011;9219;50.396;8.546;2023-08-01T02:25:22;0.97;;;0.90;;
18188;SDS011;9219;50.396;8.546;2023-08-01T02:27:49;1.00;;;0.90;;
18188;SDS011;9219;50.396;8.546;2023-08-01T02:30:16;2.40;;;1.50;;
18188;SDS011;9219;50.396;8.546;2023-08-01T02:32:43;0.93;;;0.87;;
18188;SDS011;9219;50.396;8.546;2023-08-01T02:35:11;1.37;;;1.13;;
18188;SDS011;9219;50.396;8.546;2023-08-01T02:42:44;1.00;;;0.93;;
18188;SDS011;9219;50.396;8.546;2023-08-01T02:45:14;4.27;;;1.07;;
18188;SDS011;9219;50.396;8.546;2023-08-01T02:47:41;4.73;;;1.03;;
18188;SDS011;9219;50.396;8.546;2023-08-01T02:50:09;1.10;;;1.00;;
18188;SDS011;9219;50.396;8.546;2023-08-01T02:52:36;2.80;;;1.27;;
18188;SDS011;9219;50.396;8.546;2023-08-01T02:55:04;3.20;;;1.50;;
18188;SDS011;9219;50.396;8.546;2023-08-01T02:57:32;4.03;;;1.13;;
18188;SDS011;9219;50.396;8.546;2023-08-01T03:04:29;3.30;;;1.37;;
18188;SDS011;9219;50.396;8.546;2023-08-01T03:07:11;0.73;;;0.70;;
18188;SDS011;9219;50.396;8.546;2023-08-01T03:09:38;1.87;;;1.10;;
18188;SDS011;9219;50.396;8.546;2023-08-01T03:12:05;2.33;;;1.30;;
18188;SDS011;9219;50.396;8.546;2023-08-01T03:14:33;1.37;;;1.10;;
18188;SDS011;9219;50.396;8.546;2023-08-01T03:17:02;1.67;;;1.23;;
18188;SDS011;9219;50.396;8.546;2023-08-01T03:19:30;2.57;;;1.60;;
18188;SDS011;9219;50.396;8.546;2023-08-01T03:27:06;3.77;;;1.30;;
18188;SDS011;9219;50.396;8.546;2023-08-01T03:29:34;2.60;;;1.40;;
18188;SDS011;9219;50.396;8.546;2023-08-01T03:32:01;2.30;;;1.50;;
18188;SDS011;9219;50.396;8.546;2023-08-01T03:34:31;1.13;;;1.00;;
18188;SDS011;9219;50.396;8.546;2023-08-01T03:36:58;2.83;;;1.53;;
18188;SDS011;9219;50.396;8.546;2023-08-01T03:39:30;1.03;;;0.93;;
18188;SDS011;9219;50.396;8.546;2023-08-01T03:41:57;2.77;;;1.10;;
18188;SDS011;9219;50.396;8.546;2023-08-01T03:47:07;4.23;;;1.10;;
18188;SDS011;9219;50.396;8.546;2023-08-01T03:49:34;5.23;;;1.00;;
18188;SDS011;9219;50.396;8.546;2023-08-01T03:52:01;1.90;;;1.10;;
18188;SDS011;9219;50.396;8.546;2023-08-01T03:54:31;2.50;;;1.10;;
18188;SDS011;9219;50.396;8.546;2023-08-01T03:56:58;1.97;;;0.80;;
18188;SDS011;9219;50.396;8.546;2023-08-01T03:59:26;1.57;;;0.83;;
18188;SDS011;9219;50.396;8.546;2023-08-01T04:01:53;1.13;;;1.00;;
18188;SDS011;9219;50.396;8.546;2023-08-01T04:09:34;0.80;;;0.80;;
18188;SDS011;9219;50.396;8.546;2023-08-01T04:12:05;2.20;;;0.70;;
18188;SDS011;9219;50.396;8.546;2023-08-01T04:14:32;1.80;;;0.70;;
18188;SDS011;9219;50.396;8.546;2023-08-01T04:16:59;1.93;;;0.90;;
18188;SDS011;9219;50.396;8.546;2023-08-01T04:19:28;0.97;;;0.70;;
18188;SDS011;9219;50.396;8.546;2023-08-01T04:21:55;0.60;;;0.60;;
18188;SDS011;9219;50.396;8.546;2023-08-01T04:24:22;0.97;;;0.70;;
18188;SDS011;9219;50.396;8.546;2023-08-01T04:26:52;1.07;;;0.70;;
18188;SDS011;9219;50.396;8.546;2023-08-01T04:33:58;7.37;;;1.10;;
18188;SDS011;9219;50.396;8.546;2023-08-01T04:36:28;0.73;;;0.60;;
18188;SDS011;9219;50.396;8.546;2023-08-01T04:38:55;1.90;;;0.80;;
18188;SDS011;9219;50.396;8.546;2023-08-01T04:41:22;0.80;;;0.60;;
18188;SDS011;9219;50.396;8.546;2023-08-01T04:43:50;0.47;;;0.47;;
18188;SDS011;9219;50.396;8.546;2023-08-01T04:46:18;1.07;;;0.50;;
18188;SDS011;9219;50.396;8.546;2023-08-01T04:48:45;1.00;;;0.57;;
18188;SDS011;9219;50.396;8.546;2023-08-01T04:56:17;0.93;;;0.40;;
18188;SDS011;9219;50.396;8.546;2023-08-01T04:58:45;1.73;;;0.40;;
18188;SDS011;9219;50.396;8.546;2023-08-01T05:01:12;1.23;;;0.63;;
18188;SDS011;9219;50.396;8.546;2023-08-01T05:03:40;1.20;;;0.60;;
18188;SDS011;9219;50.396;8.546;2023-08-01T05:06:07;2.97;;;0.50;;
18188;SDS011;9219;50.396;8.546;2023-08-01T05:08:34;1.80;;;0.40;;
18188;SDS011;9219;50.396;8.546;2023-08-01T05:11:02;0.83;;;0.50;;
18188;SDS011;9219;50.396;8.546;2023-08-01T05:18:29;3.03;;;0.23;;
18188;SDS011;9219;50.396;8.546;2023-08-01T05:20:59;0.80;;;0.33;;
18188;SDS011;9219;50.396;8.546;2023-08-01T05:23:25;0.20;;;0.20;;
18188;SDS011;9219;50.396;8.546;2023-08-01T05:25:53;2.10;;;0.47;;
18188;SDS011;9219;50.396;8.546;2023-08-01T05:28:20;11.67;;;0.40;;
18188;SDS011;9219;50.396;8.546;2023-08-01T05:30:47;1.40;;;0.30;;
18188;SDS011;9219;50.396;8.546;2023-08-01T05:33:14;0.43;;;0.20;;
18188;SDS011;9219;50.396;8.546;2023-08-01T05:40:51;0.30;;;0.17;;
18188;SDS011;9219;50.396;8.546;2023-08-01T05:43:23;0.30;;;0.30;;
18188;SDS011;9219;50.396;8.546;2023-08-01T05:45:51;0.53;;;0.40;;
18188;SDS011;9219;50.396;8.546;2023-08-01T05:48:19;0.77;;;0.70;;
18188;SDS011;9219;50.396;8.546;2023-08-01T05:50:46;2.23;;;0.97;;
18188;SDS011;9219;50.396;8.546;2023-08-01T05:53:13;0.90;;;0.90;;
18188;SDS011;9219;50.396;8.546;2023-08-01T05:55:41;1.10;;;1.00;;
18188;SDS011;9219;50.396;8.546;2023-08-01T05:58:15;3.67;;;1.37;;
18188;SDS011;9219;50.396;8.546;2023-08-01T06:05:49;3.10;;;1.30;;
18188;SDS011;9219;50.396;8.546;2023-08-01T06:08:16;2.87;;;1.60;;
18188;SDS011;9219;50.396;8.546;2023-08-01T06:10:45;3.97;;;1.87;;
18188;SDS011;9219;50.396;8.546;2023-08-01T06:13:12;2.27;;;2.07;;
18188;SDS011;9219;50.396;8.546;2023-08-01T06:15:41;3.83;;;2.33;;
18188;SDS011;9219;50.396;8.546;2023-08-01T06:18:09;2.90;;;2.43;;
18188;SDS011;9219;50.396;8.546;2023-08-01T06:20:37;5.67;;;3.10;;
18188;SDS011;9219;50.396;8.546;2023-08-01T06:27:46;5.67;;;3.10;;
18188;SDS011;9219;50.396;8.546;2023-08-01T06:30:15;7.67;;;3.83;;
18188;SDS011;9219;50.396;8.546;2023-08-01T06:32:41;5.57;;;4.03;;
18188;SDS011;9219;50.396;8.546;2023-08-01T06:35:09;4.40;;;3.30;;
18188;SDS011;9219;50.396;8.546;2023-08-01T06:37:36;5.70;;;4.13;;
18188;SDS011;9219;50.396;8.546;2023-08-01T06:40:04;3.97;;;3.50;;
18188;SDS011;9219;50.396;8.546;2023-08-01T06:42:32;7.33;;;3.63;;
18188;SDS011;9219;50.396;8.546;2023-08-01T06:50:06;7.70;;;3.60;;
18188;SDS011;9219;50.396;8.546;2023-08-01T06:52:33;8.30;;;4.73;;
18188;SDS011;9219;50.396;8.546;2023-08-01T06:55:02;8.17;;;3.77;;
18188;SDS011;9219;50.396;8.546;2023-08-01T06:57:29;5.17;;;4.03;;
18188;SDS011;9219;50.396;8.546;2023-08-01T06:59:57;6.33;;;4.13;;
18188;SDS011;9219;50.396;8.546;2023-08-01T07:02:27;12.33;;;4.57;;
18188;SDS011;9219;50.396;8.546;2023-08-01T07:04:54;7.27;;;4.30;;
18188;SDS011;9219;50.396;8.546;2023-08-01T07:12:03;5.83;;;4.00;;
18188;SDS011;9219;50.396;8.546;2023-08-01T07:14:31;7.47;;;4.53;;
18188;SDS011;9219;50.396;8.546;2023-08-01T07:16:58;16.60;;;5.73;;
18188;SDS011;9219;50.396;8.546;2023-08-01T07:19:26;11.37;;;4.60;;
18188;SDS011;9219;50.396;8.546;2023-08-01T07:21:53;4.17;;;3.40;;
18188;SDS011;9219;50.396;8.546;2023-08-01T07:24:24;11.37;;;4.50;;
18188;SDS011;9219;50.396;8.546;2023-08-01T07:26:54;8.57;;;4.10;;
18188;SDS011;9219;50.396;8.546;2023-08-01T07:33:52;5.67;;;3.40;;
18188;SDS011;9219;50.396;8.546;2023-08-01T07:36:19;6.43;;;3.50;;
18188;SDS011;9219;50.396;8.546;2023-08-01T07:38:47;5.03;;;3.57;;
18188;SDS011;9219;50.396;8.546;2023-08-01T07:41:14;7.13;;;4.30;;
18188;SDS011;9219;50.396;8.546;2023-08-01T07:43:42;5.70;;;3.83;;
18188;SDS011;9219;50.396;8.546;2023-08-01T07:46:10;7.87;;;3.90;;
18188;SDS011;9219;50.396;8.546;2023-08-01T07:48:38;4.20;;;3.13;;
18188;SDS011;9219;50.396;8.546;2023-08-01T07:54:29;5.23;;;3.43;;
18188;SDS011;9219;50.396;8.546;2023-08-01T07:56:57;9.53;;;4.37;;
18188;SDS011;9219;50.396;8.546;2023-08-01T07:59:24;5.20;;;3.70;;
18188;SDS011;9219;50.396;8.546;2023-08-01T08:01:51;5.83;;;3.13;;
18188;SDS011;9219;50.396;8.546;2023-08-01T08:04:18;4.73;;;2.87;;
18188;SDS011;9219;50.396;8.546;2023-08-01T08:06:50;4.57;;;2.73;;
18188;SDS011;9219;50.396;8.546;2023-08-01T08:09:22;6.83;;;3.23;;
18188;SDS011;9219;50.396;8.546;2023-08-01T08:14:57;4.80;;;3.33;;
18188;SDS011;9219;50.396;8.546;2023-08-01T08:17:27;8.07;;;3.03;;
18188;SDS011;9219;50.396;8.546;2023-08-01T08:19:55;5.20;;;2.83;;
18188;SDS011;9219;50.396;8.546;2023-08-01T08:22:22;3.87;;;2.77;;
18188;SDS011;9219;50.396;8.546;2023-08-01T08:24:50;7.00;;;2.63;;
18188;SDS011;9219;50.396;8.546;2023-08-01T08:27:18;4.77;;;2.77;;
18188;SDS011;9219;50.396;8.546;2023-08-01T08:29:45;4.37;;;2.57;;
18188;SDS011;9219;50.396;8.546;2023-08-01T08:36:40;3.77;;;1.77;;
18188;SDS011;9219;50.396;8.546;2023-08-01T08:39:08;2.80;;;1.87;;
18188;SDS011;9219;50.396;8.546;2023-08-01T08:41:38;4.17;;;2.60;;
18188;SDS011;9219;50.396;8.546;2023-08-01T08:44:10;3.70;;;2.03;;
18188;SDS011;9219;50.396;8.546;2023-08-01T08:46:40;3.43;;;2.50;;
18188;SDS011;9219;50.396;8.546;2023-08-01T08:49:09;3.03;;;2.43;;
18188;SDS011;9219;50.396;8.546;2023-08-01T08:51:37;1.97;;;1.60;;
18188;SDS011;9219;50.396;8.546;2023-08-01T08:59:10;3.10;;;2.00;;
18188;SDS011;9219;50.396;8.546;2023-08-01T09:01:38;2.83;;;2.10;;
18188;SDS011;9219;50.396;8.546;2023-08-01T09:04:05;12.83;;;2.37;;
18188;SDS011;9219;50.396;8.546;2023-08-01T09:06:34;4.37;;;1.90;;
18188;SDS011;9219;50.396;8.546;2023-08-01T09:09:18;2.60;;;1.90;;
18188;SDS011;9219;50.396;8.546;2023-08-01T09:11:50;4.60;;;1.93;;
18188;SDS011;9219;50.396;8.546;2023-08-01T09:14:22;3.00;;;1.80;;
18188;SDS011;9219;50.396;8.546;2023-08-01T09:21:38;7.20;;;2.07;;
18188;SDS011;9219;50.396;8.546;2023-08-01T09:24:08;2.43;;;1.50;;
18188;SDS011;9219;50.396;8.546;2023-08-01T09:26:36;2.80;;;1.80;;
18188;SDS011;9219;50.396;8.546;2023-08-01T09:29:04;4.20;;;1.70;;
18188;SDS011;9219;50.396;8.546;2023-08-01T09:31:33;6.37;;;1.97;;
18188;SDS011;9219;50.396;8.546;2023-08-01T09:34:02;3.20;;;1.80;;
18188;SDS011;9219;50.396;8.546;2023-08-01T09:36:31;2.53;;;1.47;;
18188;SDS011;9219;50.396;8.546;2023-08-01T09:44:09;3.57;;;2.20;;
18188;SDS011;9219;50.396;8.546;2023-08-01T09:46:37;3.03;;;1.67;;
18188;SDS011;9219;50.396;8.546;2023-08-01T09:49:08;3.90;;;1.50;;
18188;SDS011;9219;50.396;8.546;2023-08-01T09:51:45;3.10;;;1.37;;
18188;SDS011;9219;50.396;8.546;2023-08-01T09:54:13;2.23;;;1.70;;
18188;SDS011;9219;50.396;8.546;2023-08-01T09:56:41;2.37;;;1.40;;
18188;SDS011;9219;50.396;8.546;2023-08-01T09:59:12;4.13;;;1.67;;
18188;SDS011;9219;50.396;8.546;2023-08-01T10:06:42;2.43;;;1.70;;
18188;SDS011;9219;50.396;8.546;2023-08-01T10:09:11;2.87;;;1.53;;
18188;SDS011;9219;50.396;8.546;2023-08-01T10:11:40;2.97;;;2.00;;
18188;SDS011;9219;50.396;8.546;2023-08-01T10:14:08;6.40;;;1.80;;
18188;SDS011;9219;50.396;8.546;2023-08-01T10:16:35;1.90;;;1.63;;
18188;SDS011;9219;50.396;8.546;2023-08-01T10:19:04;2.37;;;1.83;;
18188;SDS011;9219;50.396;8.546;2023-08-01T10:21:38;3.33;;;2.13;;
18188;SDS011;9219;50.396;8.546;2023-08-01T10:28:50;3.87;;;2.40;;
18188;SDS011;9219;50.396;8.546;2023-08-01T10:31:18;3.53;;;1.97;;
18188;SDS011;9219;50.396;8.546;2023-08-01T10:33:47;1.97;;;1.53;;
18188;SDS011;9219;50.396;8.546;2023-08-01T10:36:15;3.20;;;2.00;;
18188;SDS011;9219;50.396;8.546;2023-08-01T10:38:47;2.87;;;2.07;;
18188;SDS011;9219;50.396;8.546;2023-08-01T10:41:19;2.53;;;1.80;;
18188;SDS011;9219;50.396;8.546;2023-08-01T10:43:47;2.13;;;1.80;;
18188;SDS011;9219;50.396;8.546;2023-08-01T10:51:18;6.83;;;2.90;;
18188;SDS011;9219;50.396;8.546;2023-08-01T10:53:45;3.30;;;2.33;;
18188;SDS011;9219;50.396;8.546;2023-08-01T10:56:18;3.47;;;1.97;;
18188;SDS011;9219;50.396;8.546;2023-08-01T10:58:46;3.60;;;1.93;;
18188;SDS011;9219;50.396;8.546;2023-08-01T11:01:13;3.57;;;1.80;;
18188;SDS011;9219;50.396;8.546;2023-08-01T11:03:41;1.70;;;1.50;;
18188;SDS011;9219;50.396;8.546;2023-08-01T11:06:10;2.47;;;1.83;;
18188;SDS011;9219;50.396;8.546;2023-08-01T11:13:38;4.30;;;2.07;;
18188;SDS011;9219;50.396;8.546;2023-08-01T11:16:06;3.27;;;2.10;;
18188;SDS011;9219;50.396;8.546;2023-08-01T11:18:43;6.63;;;2.33;;
18188;SDS011;9219;50.396;8.546;2023-08-01T11:21:10;7.20;;;1.83;;
18188;SDS011;9219;50.396;8.546;2023-08-01T11:23:37;4.37;;;2.30;;
18188;SDS011;9219;50.396;8.546;2023-08-01T11:26:08;4.17;;;2.10;;
18188;SDS011;9219;50.396;8.546;2023-08-01T11:28:38;10.13;;;2.00;;
18188;SDS011;9219;50.396;8.546;2023-08-01T11:36:17;4.00;;;2.20;;
18188;SDS011;9219;50.396;8.546;2023-08-01T11:38:45;2.33;;;2.13;;
18188;SDS011;9219;50.396;8.546;2023-08-01T11:41:13;4.20;;;2.20;;
18188;SDS011;9219;50.396;8.546;2023-08-01T11:43:41;4.27;;;2.27;;
18188;SDS011;9219;50.396;8.546;2023-08-01T11:46:11;3.13;;;1.93;;
18188;SDS011;9219;50.396;8.546;2023-08-01T11:48:39;4.50;;;2.50;;
18188;SDS011;9219;50.396;8.546;2023-08-01T11:51:11;4.63;;;1.93;;
18188;SDS011;9219;50.396;8.546;2023-08-01T11:58:46;4.93;;;2.13;;
18188;SDS011;9219;50.396;8.546;2023-08-01T12:01:19;2.23;;;1.47;;
18188;SDS011;9219;50.396;8.546;2023-08-01T12:03:52;3.40;;;1.70;;
18188;SDS011;9219;50.396;8.546;2023-08-01T12:06:25;1.93;;;1.57;;
18188;SDS011;9219;50.396;8.546;2023-08-01T12:09:05;3.67;;;1.83;;
18188;SDS011;9219;50.396;8.546;2023-08-01T12:11:33;9.03;;;1.90;;
18188;SDS011;9219;50.396;8.546;2023-08-01T12:16:45;3.33;;;1.83;;
18188;SDS011;9219;50.396;8.546;2023-08-01T12:19:16;5.47;;;1.67;;
18188;SDS011;9219;50.396;8.546;2023-08-01T12:21:45;3.87;;;1.70;;
18188;SDS011;9219;50.396;8.546;2023-08-01T12:24:12;3.27;;;1.47;;
18188;SDS011;9219;50.396;8.546;2023-08-01T12:26:41;3.40;;;1.53;;
18188;SDS011;9219;50.396;8.546;2023-08-01T12:29:10;2.57;;;1.40;;
18188;SDS011;9219;50.396;8.546;2023-08-01T12:31:37;1.43;;;1.33;;
18188;SDS011;9219;50.396;8.546;2023-08-01T12:39:12;4.13;;;1.80;;
18188;SDS011;9219;50.396;8.546;2023-08-01T12:41:41;2.37;;;1.53;;
18188;SDS011;9219;50.396;8.546;2023-08-01T12:44:12;2.17;;;1.43;;
18188;SDS011;9219;50.396;8.546;2023-08-01T12:46:42;3.67;;;1.90;;
18188;SDS011;9219;50.396;8.546;2023-08-01T12:49:10;5.23;;;2.10;;
18188;SDS011;9219;50.396;8.546;2023-08-01T12:51:43;3.80;;;2.33;;
18188;SDS011;9219;50.396;8.546;2023-08-01T12:54:15;11.07;;;2.03;;
18188;SDS011;9219;50.396;8.546;2023-08-01T13:01:48;4.40;;;2.00;;
18188;SDS011;9219;50.396;8.546;2023-08-01T13:04:16;4.93;;;2.30;;
18188;SDS011;9219;50.396;8.546;2023-08-01T13:06:44;4.00;;;1.80;;
18188;SDS011;9219;50.396;8.546;2023-08-01T13:09:12;4.30;;;2.00;;
18188;SDS011;9219;50.396;8.546;2023-08-01T13:11:43;1.67;;;1.40;;
18188;SDS011;9219;50.396;8.546;2023-08-01T13:14:11;1.60;;;1.30;;
18188;SDS011;9219;50.396;8.546;2023-08-01T13:16:39;4.20;;;1.23;;
18188;SDS011;9219;50.396;8.546;2023-08-01T13:24:14;4.07;;;1.60;;
18188;SDS011;9219;50.396;8.546;2023-08-01T13:26:45;3.00;;;1.93;;
18188;SDS011;9219;50.396;8.546;2023-08-01T13:29:13;3.07;;;1.37;;
18188;SDS011;9219;50.396;8.546;2023-08-01T13:31:43;2.23;;;1.43;;
18188;SDS011;9219;50.396;8.546;2023-08-01T13:34:13;2.87;;;1.70;;
18188;SDS011;9219;50.396;8.546;2023-08-01T13:36:44;3.90;;;1.87;;
18188;SDS011;9219;50.396;8.546;2023-08-01T13:39:18;7.90;;;2.20;;
18188;SDS011;9219;50.396;8.546;2023-08-01T13:44:49;7.37;;;2.40;;
18188;SDS011;9219;50.396;8.546;2023-08-01T13:47:16;3.33;;;1.97;;
18188;SDS011;9219;50.396;8.546;2023-08-01T13:49:44;2.80;;;1.90;;
18188;SDS011;9219;50.396;8.546;2023-08-01T13:52:12;3.60;;;1.90;;
18188;SDS011;9219;50.396;8.546;2023-08-01T13:54:39;2.67;;;2.20;;
18188;SDS011;9219;50.396;8.546;2023-08-01T13:57:07;4.00;;;2.37;;
18188;SDS011;9219;50.396;8.546;2023-08-01T13:59:34;3.97;;;2.67;;
18188;SDS011;9219;50.396;8.546;2023-08-01T14:06:31;5.90;;;2.73;;
18188;SDS011;9219;50.396;8.546;2023-08-01T14:09:01;3.67;;;2.40;;
18188;SDS011;9219;50.396;8.546;2023-08-01T14:11:31;4.30;;;1.93;;
18188;SDS011;9219;50.396;8.546;2023-08-01T14:14:02;3.07;;;1.80;;
18188;SDS011;9219;50.396;8.546;2023-08-01T14:16:31;4.67;;;1.60;;
18188;SDS011;9219;50.396;8.546;2023-08-01T14:19:01;5.50;;;2.23;;
18188;SDS011;9219;50.396;8.546;2023-08-01T14:21:31;5.00;;;2.10;;
18188;SDS011;9219;50.396;8.546;2023-08-01T14:26:42;3.07;;;1.73;;
18188;SDS011;9219;50.396;8.546;2023-08-01T14:29:13;3.53;;;1.50;;
18188;SDS011;9219;50.396;8.546;2023-08-01T14:31:46;5.27;;;1.60;;
18188;SDS011;9219;50.396;8.546;2023-08-01T14:34:18;1.53;;;1.40;;
18188;SDS011;9219;50.396;8.546;2023-08-01T14:36:48;2.07;;;1.80;;
18188;SDS011;9219;50.396;8.546;2023-08-01T14:39:16;3.83;;;1.87;;
18188;SDS011;9219;50.396;8.546;2023-08-01T14:46:07;7.90;;;1.83;;
18188;SDS011;9219;50.396;8.546;2023-08-01T14:48:36;5.10;;;2.13;;
18188;SDS011;9219;50.396;8.546;2023-08-01T14:51:12;2.60;;;1.40;;
18188;SDS011;9219;50.396;8.546;2023-08-01T14:53:45;5.87;;;1.83;;
18188;SDS011;9219;50.396;8.546;2023-08-01T14:56:20;2.63;;;1.23;;
18188;SDS011;9219;50.396;8.546;2023-08-01T14:58:57;2.30;;;1.40;;
18188;SDS011;9219;50.396;8.546;2023-08-01T15:01:30;2.77;;;1.10;;
18188;SDS011;9219;50.396;8.546;2023-08-01T15:09:11;3.30;;;1.13;;
18188;SDS011;9219;50.396;8.546;2023-08-01T15:11:46;1.13;;;0.90;;
18188;SDS011;9219;50.396;8.546;2023-08-01T15:14:18;3.67;;;1.67;;
18188;SDS011;9219;50.396;8.546;2023-08-01T15:16:50;5.37;;;1.90;;
18188;SDS011;9219;50.396;8.546;2023-08-01T15:19:23;3.97;;;1.10;;
18188;SDS011;9219;50.396;8.546;2023-08-01T15:21:52;3.33;;;1.43;;
18188;SDS011;9219;50.396;8.546;2023-08-01T15:24:22;2.63;;;1.30;;
18188;SDS011;9219;50.396;8.546;2023-08-01T15:31:22;3.63;;;1.20;;
18188;SDS011;9219;50.396;8.546;2023-08-01T15:33:53;2.20;;;1.33;;
18188;SDS011;9219;50.396;8.546;2023-08-01T15:36:28;2.00;;;1.27;;
18188;SDS011;9219;50.396;8.546;2023-08-01T15:38:59;2.83;;;1.23;;
18188;SDS011;9219;50.396;8.546;2023-08-01T15:41:33;2.93;;;1.40;;
18188;SDS011;9219;50.396;8.546;2023-08-01T15:44:03;4.60;;;0.90;;
18188;SDS011;9219;50.396;8.546;2023-08-01T15:49:16;3.03;;;1.07;;
18188;SDS011;9219;50.396;8.546;2023-08-01T15:51:49;1.57;;;1.23;;
18188;SDS011;9219;50.396;8.546;2023-08-01T15:54:17;4.53;;;1.10;;
18188;SDS011;9219;50.396;8.546;2023-08-01T15:56:47;2.10;;;1.03;;
18188;SDS011;9219;50.396;8.546;2023-08-01T15:59:20;11.07;;;1.50;;
18188;SDS011;9219;50.396;8.546;2023-08-01T16:01:52;3.83;;;1.10;;
18188;SDS011;9219;50.396;8.546;2023-08-01T16:04:22;4.70;;;1.53;;
18188;SDS011;9219;50.396;8.546;2023-08-01T16:11:26;1.73;;;1.43;;
18188;SDS011;9219;50.396;8.546;2023-08-01T16:13:59;3.70;;;1.50;;
18188;SDS011;9219;50.396;8.546;2023-08-01T16:16:35;3.20;;;1.23;;
18188;SDS011;9219;50.396;8.546;2023-08-01T16:19:04;2.17;;;1.30;;
18188;SDS011;9219;50.396;8.546;2023-08-01T16:21:34;2.10;;;1.20;;
18188;SDS011;9219;50.396;8.546;2023-08-01T16:24:03;2.70;;;1.10;;
18188;SDS011;9219;50.396;8.546;2023-08-01T16:26:38;3.40;;;1.17;;
18188;SDS011;9219;50.396;8.546;2023-08-01T16:34:15;1.60;;;1.20;;
18188;SDS011;9219;50.396;8.546;2023-08-01T16:36:43;3.87;;;1.40;;
18188;SDS011;9219;50.396;8.546;2023-08-01T16:39:16;5.93;;;0.90;;
18188;SDS011;9219;50.396;8.546;2023-08-01T16:41:47;4.07;;;1.03;;
18188;SDS011;9219;50.396;8.546;2023-08-01T16:44:20;5.00;;;1.10;;
18188;SDS011;9219;50.396;8.546;2023-08-01T16:46:51;1.87;;;0.80;;
18188;SDS011;9219;50.396;8.546;2023-08-01T16:49:24;2.47;;;1.50;;
18188;SDS011;9219;50.396;8.546;2023-08-01T16:51:57;1.30;;;1.20;;
18188;SDS011;9219;50.396;8.546;2023-08-01T16:59:38;3.53;;;1.20;;
18188;SDS011;9219;50.396;8.546;2023-08-01T17:02:10;1.40;;;1.10;;
18188;SDS011;9219;50.396;8.546;2023-08-01T17:04:43;4.27;;;1.10;;
18188;SDS011;9219;50.396;8.546;2023-08-01T17:07:13;1.63;;;0.93;;
18188;SDS011;9219;50.396;8.546;2023-08-01T17:09:44;1.10;;;0.80;;
18188;SDS011;9219;50.396;8.546;2023-08-01T17:12:14;4.60;;;1.30;;
18188;SDS011;9219;50.396;8.546;2023-08-01T17:14:49;9.13;;;1.07;;
18188;SDS011;9219;50.396;8.546;2023-08-01T17:30:34;3.10;;;1.40;;
18188;SDS011;9219;50.396;8.546;2023-08-01T17:33:08;5.03;;;1.47;;
18188;SDS011;9219;50.396;8.546;2023-08-01T17:35:42;2.80;;;1.17;;
18188;SDS011;9219;50.396;8.546;2023-08-01T17:38:15;10.07;;;2.83;;
18188;SDS011;9219;50.396;8.546;2023-08-01T17:40:44;2.77;;;1.50;;
18188;SDS011;9219;50.396;8.546;2023-08-01T17:43:14;2.70;;;1.40;;
18188;SDS011;9219;50.396;8.546;2023-08-01T17:45:44;2.63;;;1.17;;
18188;SDS011;9219;50.396;8.546;2023-08-01T17:53:10;2.20;;;1.13;;
18188;SDS011;9219;50.396;8.546;2023-08-01T17:55:41;1.60;;;1.00;;
18188;SDS011;9219;50.396;8.546;2023-08-01T17:58:14;3.00;;;1.20;;
18188;SDS011;9219;50.396;8.546;2023-08-01T18:00:47;4.40;;;1.87;;
18188;SDS011;9219;50.396;8.546;2023-08-01T18:03:20;2.77;;;1.10;;
18188;SDS011;9219;50.396;8.546;2023-08-01T18:05:52;5.07;;;1.47;;
18188;SDS011;9219;50.396;8.546;2023-08-01T18:08:36;2.70;;;1.40;;
18188;SDS011;9219;50.396;8.546;2023-08-01T18:15:26;3.23;;;1.20;;
18188;SDS011;9219;50.396;8.546;2023-08-01T18:17:57;1.33;;;0.83;;
18188;SDS011;9219;50.396;8.546;2023-08-01T18:20:32;3.63;;;1.47;;
18188;SDS011;9219;50.396;8.546;2023-08-01T18:23:06;3.50;;;1.30;;
18188;SDS011;9219;50.396;8.546;2023-08-01T18:25:48;2.37;;;1.37;;
18188;SDS011;9219;50.396;8.546;2023-08-01T18:28:20;2.07;;;1.33;;
18188;SDS011;9219;50.396;8.546;2023-08-01T18:30:55;3.60;;;1.10;;
18188;SDS011;9219;50.396;8.546;2023-08-01T18:38:31;3.37;;;1.40;;
18188;SDS011;9219;50.396;8.546;2023-08-01T18:41:04;4.43;;;1.77;;
18188;SDS011;9219;50.396;8.546;2023-08-01T18:43:36;2.20;;;1.63;;
18188;SDS011;9219;50.396;8.546;2023-08-01T18:46:06;6.60;;;2.23;;
18188;SDS011;9219;50.396;8.546;2023-08-01T18:48:39;4.17;;;1.63;;
18188;SDS011;9219;50.396;8.546;2023-08-01T18:51:17;4.10;;;1.93;;
18188;SDS011;9219;50.396;8.546;2023-08-01T18:53:54;4.67;;;2.20;;
18188;SDS011;9219;50.396;8.546;2023-08-01T19:01:35;2.07;;;1.50;;
18188;SDS011;9219;50.396;8.546;2023-08-01T19:04:07;5.07;;;2.13;;
18188;SDS011;9219;50.396;8.546;2023-08-01T19:06:41;2.10;;;1.90;;
18188;SDS011;9219;50.396;8.546;2023-08-01T19:09:13;4.07;;;1.73;;
18188;SDS011;9219;50.396;8.546;2023-08-01T19:11:48;5.50;;;1.83;;
18188;SDS011;9219;50.396;8.546;2023-08-01T19:14:23;3.30;;;2.13;;
18188;SDS011;9219;50.396;8.546;2023-08-01T19:17:00;5.37;;;2.43;;
18188;SDS011;9219;50.396;8.546;2023-08-01T19:24:09;3.23;;;1.70;;